createdAt,value
2023-05-10T00:00:23.648Z,38.58
2023-05-10T00:01:23.689Z,38.57
2023-05-10T00:02:23.835Z,38.53
2023-05-10T00:03:23.819Z,38.54
2023-05-10T00:04:23.706Z,38.55
2023-05-10T00:05:23.727Z,38.55
2023-05-10T00:06:23.711Z,38.52
2023-05-10T00:07:23.800Z,38.55
2023-05-10T00:08:23.730Z,38.51
2023-05-10T00:09:23.753Z,38.57
2023-05-10T00:10:23.737Z,38.58
2023-05-10T00:11:23.760Z,38.56
2023-05-10T00:12:23.735Z,38.62
2023-05-10T00:13:23.818Z,38.58
2023-05-10T00:14:23.751Z,38.58
2023-05-10T00:15:23.784Z,38.55
2023-05-10T00:16:23.754Z,38.51
2023-05-10T00:17:23.896Z,38.54
2023-05-10T00:18:23.785Z,38.56
2023-05-10T00:19:23.818Z,38.55
2023-05-10T00:20:23.808Z,38.57
2023-05-10T00:21:23.827Z,38.58
2023-05-10T00:22:23.818Z,38.55
2023-05-10T00:23:23.848Z,38.57
2023-05-10T00:24:23.832Z,38.55
2023-05-10T00:25:23.850Z,38.55
2023-05-10T00:26:23.854Z,38.53
2023-05-10T00:27:23.873Z,38.52
2023-05-10T00:28:23.884Z,38.57
2023-05-10T00:29:23.909Z,38.55
2023-05-10T00:30:23.899Z,38.56
2023-05-10T00:31:23.970Z,38.53
2023-05-10T00:32:24.000Z,38.57
2023-05-10T00:33:23.925Z,38.59
2023-05-10T00:34:23.942Z,38.56
2023-05-10T00:35:23.938Z,38.55
2023-05-10T00:36:23.953Z,38.56
2023-05-10T00:37:23.948Z,38.55
2023-05-10T00:38:23.954Z,38.56
2023-05-10T00:39:23.973Z,38.61
2023-05-10T00:40:24.007Z,38.57
2023-05-10T00:41:23.988Z,38.55
2023-05-10T00:42:24.031Z,38.55
2023-05-10T00:43:24.005Z,38.56
2023-05-10T00:44:24.034Z,38.59
2023-05-10T00:45:24.044Z,38.57
2023-05-10T00:46:24.075Z,38.59
2023-05-10T00:47:24.080Z,38.56
2023-05-10T00:48:24.053Z,38.59
2023-05-10T00:49:24.056Z,38.56
2023-05-10T00:50:24.068Z,38.53
2023-05-10T00:51:24.072Z,38.52
2023-05-10T00:52:24.093Z,38.57
2023-05-10T00:53:24.107Z,38.57
2023-05-10T00:54:24.107Z,38.59
2023-05-10T00:55:24.117Z,38.57
2023-05-10T00:56:24.120Z,38.57
2023-05-10T00:57:24.124Z,38.59
2023-05-10T00:58:24.144Z,38.62
2023-05-10T00:59:24.159Z,38.55
2023-05-10T01:00:24.157Z,38.57
2023-05-10T01:01:24.197Z,38.57
2023-05-10T01:02:24.266Z,38.57
2023-05-10T01:03:24.256Z,38.59
2023-05-10T01:04:24.255Z,38.60
2023-05-10T01:05:24.339Z,38.60
2023-05-10T01:06:24.256Z,38.53
2023-05-10T01:07:24.272Z,38.57
2023-05-10T01:08:24.270Z,38.59
2023-05-10T01:09:24.293Z,38.55
2023-05-10T01:10:24.312Z,38.57
2023-05-10T01:11:24.361Z,38.59
2023-05-10T01:12:24.359Z,38.52
2023-05-10T01:13:24.478Z,38.56
2023-05-10T01:14:24.370Z,38.56
2023-05-10T01:15:24.392Z,38.57
2023-05-10T01:16:24.409Z,38.55
2023-05-10T01:17:24.420Z,38.52
2023-05-10T01:18:24.427Z,38.52
2023-05-10T01:19:24.442Z,38.50
2023-05-10T01:20:24.461Z,38.52
2023-05-10T01:21:24.465Z,38.52
2023-05-10T01:22:24.524Z,38.56
2023-05-10T01:23:24.494Z,38.53
2023-05-10T01:24:24.558Z,38.52
2023-05-10T01:25:24.538Z,38.51
2023-05-10T01:26:24.564Z,38.50
2023-05-10T01:27:24.572Z,38.52
2023-05-10T01:28:24.599Z,38.48
2023-05-10T01:29:24.578Z,38.49
2023-05-10T01:30:24.827Z,38.49
2023-05-10T01:31:24.677Z,38.49
2023-05-10T01:32:24.652Z,38.50
2023-05-10T01:33:24.656Z,38.51
2023-05-10T01:34:24.683Z,38.49
2023-05-10T01:35:24.679Z,38.46
2023-05-10T01:36:24.684Z,38.43
2023-05-10T01:37:24.697Z,38.45
2023-05-10T01:38:24.714Z,38.50
2023-05-10T01:39:24.721Z,38.49
2023-05-10T01:40:24.734Z,38.42
2023-05-10T01:41:24.756Z,38.45
2023-05-10T01:42:24.757Z,38.49
2023-05-10T01:43:24.789Z,38.47
2023-05-10T01:44:24.801Z,38.45
2023-05-10T01:45:24.823Z,38.42
2023-05-10T01:46:24.841Z,38.43
2023-05-10T01:47:24.955Z,38.46
2023-05-10T01:48:24.845Z,38.43
2023-05-10T01:49:24.884Z,38.45
2023-05-10T01:50:24.874Z,38.42
2023-05-10T01:51:24.888Z,38.42
2023-05-10T01:52:24.886Z,38.44
2023-05-10T01:53:24.904Z,38.42
2023-05-10T01:54:24.915Z,38.43
2023-05-10T01:55:24.937Z,38.39
2023-05-10T01:56:25.078Z,38.46
2023-05-10T01:57:24.959Z,38.43
2023-05-10T01:58:24.960Z,38.43
2023-05-10T01:59:24.993Z,38.44
2023-05-10T02:00:25.002Z,38.39
2023-05-10T02:01:25.014Z,38.39
2023-05-10T02:02:25.066Z,38.36
2023-05-10T02:03:25.061Z,38.42
2023-05-10T02:04:25.047Z,38.40
2023-05-10T02:05:25.049Z,38.42
2023-05-10T02:06:25.079Z,38.36
2023-05-10T02:07:25.068Z,38.35
2023-05-10T02:08:25.112Z,38.39
2023-05-10T02:09:25.078Z,38.39
2023-05-10T02:10:25.096Z,38.36
2023-05-10T02:11:25.064Z,38.35
2023-05-10T02:12:25.102Z,38.40
2023-05-10T02:13:25.183Z,38.38
2023-05-10T02:14:25.107Z,38.37
2023-05-10T02:15:25.109Z,38.39
2023-05-10T02:16:25.153Z,38.34
2023-05-10T02:17:25.151Z,38.31
2023-05-10T02:18:25.147Z,38.38
2023-05-10T02:19:25.165Z,38.34
2023-05-10T02:20:25.188Z,38.38
2023-05-10T02:21:25.178Z,38.36
2023-05-10T02:22:25.206Z,38.32
2023-05-10T02:23:25.220Z,38.39
2023-05-10T02:24:25.246Z,38.34
2023-05-10T02:25:25.247Z,38.36
2023-05-10T02:26:25.253Z,38.34
2023-05-10T02:27:25.258Z,38.31
2023-05-10T02:28:25.275Z,38.34
2023-05-10T02:29:25.286Z,38.35
2023-05-10T02:30:25.278Z,38.36
2023-05-10T02:31:25.323Z,38.34
2023-05-10T02:32:25.324Z,38.31
2023-05-10T02:33:25.315Z,38.32
2023-05-10T02:34:25.402Z,38.32
2023-05-10T02:35:25.316Z,38.32
2023-05-10T02:36:25.329Z,38.32
2023-05-10T02:37:25.328Z,38.29
2023-05-10T02:38:25.332Z,38.28
2023-05-10T02:39:25.363Z,38.29
2023-05-10T02:40:27.988Z,38.29
2023-05-10T02:41:25.326Z,38.28
2023-05-10T02:42:25.264Z,38.24
2023-05-10T02:43:25.257Z,38.25
2023-05-10T02:44:25.186Z,38.33
2023-05-10T02:45:25.150Z,38.25
2023-05-10T02:46:25.175Z,38.31
2023-05-10T02:47:25.075Z,38.32
2023-05-10T02:48:25.028Z,38.25
2023-05-10T02:49:25.303Z,38.27
2023-05-10T02:50:24.922Z,38.28
2023-05-10T02:51:24.882Z,38.27
2023-05-10T02:52:24.843Z,38.25
2023-05-10T02:53:24.822Z,38.24
2023-05-10T02:54:24.755Z,38.28
2023-05-10T02:55:24.704Z,38.29
2023-05-10T02:56:24.667Z,38.24
2023-05-10T02:57:24.631Z,38.28
2023-05-10T02:58:24.591Z,38.24
2023-05-10T02:59:24.570Z,38.27
2023-05-10T03:00:24.533Z,38.24
2023-05-10T03:01:24.483Z,38.31
2023-05-10T03:02:24.454Z,38.25
2023-05-10T03:03:24.401Z,38.18
2023-05-10T03:04:24.380Z,38.25
2023-05-10T03:05:24.343Z,38.28
2023-05-10T03:06:24.285Z,38.17
2023-05-10T03:07:24.241Z,38.22
2023-05-10T03:08:24.201Z,38.24
2023-05-10T03:09:24.186Z,38.25
2023-05-10T03:10:24.116Z,38.18
2023-05-10T03:11:24.077Z,38.21
2023-05-10T03:12:24.036Z,38.20
2023-05-10T03:13:24.092Z,38.22
2023-05-10T03:14:23.952Z,38.22
2023-05-10T03:15:23.908Z,38.15
2023-05-10T03:16:23.936Z,38.21
2023-05-10T03:17:23.864Z,38.20
2023-05-10T03:18:23.778Z,38.14
2023-05-10T03:19:23.726Z,38.17
2023-05-10T03:20:23.695Z,38.18
2023-05-10T03:21:23.673Z,38.15
2023-05-10T03:22:23.692Z,38.21
2023-05-10T03:23:23.699Z,38.17
2023-05-10T03:24:23.692Z,38.17
2023-05-10T03:25:23.688Z,38.15
2023-05-10T03:26:23.681Z,38.15
2023-05-10T03:27:23.657Z,38.17
2023-05-10T03:28:23.658Z,38.17
2023-05-10T03:29:23.685Z,38.17
2023-05-10T03:30:23.679Z,38.17
2023-05-10T03:31:23.729Z,38.15
2023-05-10T03:32:23.685Z,38.15
2023-05-10T03:33:23.685Z,38.17
2023-05-10T03:34:23.684Z,38.14
2023-05-10T03:35:23.684Z,38.17
2023-05-10T03:36:23.684Z,38.10
2023-05-10T03:37:23.724Z,38.15
2023-05-10T03:38:23.695Z,38.11
2023-05-10T03:39:23.704Z,38.10
2023-05-10T03:40:23.706Z,38.15
2023-05-10T03:41:23.706Z,38.11
2023-05-10T03:42:23.717Z,38.13
2023-05-10T03:43:23.742Z,38.08
2023-05-10T03:44:23.743Z,38.08
2023-05-10T03:45:23.726Z,38.10
2023-05-10T03:46:23.766Z,38.11
2023-05-10T03:47:23.722Z,38.08
2023-05-10T03:48:23.722Z,38.08
2023-05-10T03:49:23.760Z,38.07
2023-05-10T03:50:23.769Z,38.08
2023-05-10T03:51:23.798Z,38.07
2023-05-10T03:52:23.820Z,38.08
2023-05-10T03:53:23.800Z,38.04
2023-05-10T03:54:23.817Z,38.10
2023-05-10T03:55:23.840Z,38.03
2023-05-10T03:56:23.807Z,38.04
2023-05-10T03:57:23.838Z,38.06
2023-05-10T03:58:23.839Z,38.05
2023-05-10T03:59:23.859Z,38.05
2023-05-10T04:00:23.835Z,38.03
2023-05-10T04:01:23.874Z,38.06
2023-05-10T04:02:23.913Z,38.07
2023-05-10T04:03:23.961Z,38.04
2023-05-10T04:04:23.861Z,38.03
2023-05-10T04:05:23.893Z,38.04
2023-05-10T04:06:23.909Z,38.04
2023-05-10T04:07:23.942Z,38.04
2023-05-10T04:08:23.920Z,38.01
2023-05-10T04:09:23.966Z,37.99
2023-05-10T04:10:23.945Z,38.01
2023-05-10T04:11:24.019Z,38.03
2023-05-10T04:12:23.942Z,38.04
2023-05-10T04:13:24.029Z,38.05
2023-05-10T04:14:23.962Z,38.01
2023-05-10T04:15:23.958Z,37.99
2023-05-10T04:16:23.981Z,38.00
2023-05-10T04:17:23.978Z,38.00
2023-05-10T04:18:23.952Z,38.00
2023-05-10T04:19:24.245Z,37.99
2023-05-10T04:20:23.967Z,38.00
2023-05-10T04:21:23.969Z,38.02
2023-05-10T04:22:23.991Z,37.96
2023-05-10T04:23:23.982Z,37.95
2023-05-10T04:24:23.987Z,37.99
2023-05-10T04:25:23.977Z,37.97
2023-05-10T04:26:23.981Z,38.00
2023-05-10T04:27:23.982Z,37.96
2023-05-10T04:28:23.979Z,37.99
2023-05-10T04:29:23.981Z,37.96
2023-05-10T04:30:23.967Z,37.99
2023-05-10T04:31:24.035Z,37.99
2023-05-10T04:32:23.973Z,37.95
2023-05-10T04:33:23.958Z,37.97
2023-05-10T04:34:23.952Z,37.96
2023-05-10T04:35:23.946Z,37.93
2023-05-10T04:36:23.944Z,37.93
2023-05-10T04:37:23.976Z,37.92
2023-05-10T04:38:23.923Z,37.96
2023-05-10T04:39:23.923Z,37.95
2023-05-10T04:40:23.939Z,37.96
2023-05-10T04:41:23.923Z,37.94
2023-05-10T04:42:23.932Z,37.94
2023-05-10T04:43:23.908Z,37.97
2023-05-10T04:44:23.944Z,37.89
2023-05-10T04:45:23.917Z,37.94
2023-05-10T04:46:23.952Z,37.92
2023-05-10T04:47:23.985Z,37.93
2023-05-10T04:48:23.960Z,37.92
2023-05-10T04:49:23.940Z,37.89
2023-05-10T04:50:23.968Z,37.86
2023-05-10T04:51:23.980Z,37.90
2023-05-10T04:52:23.965Z,37.88
2023-05-10T04:53:24.021Z,37.89
2023-05-10T04:54:23.986Z,37.85
2023-05-10T04:55:24.355Z,37.85
2023-05-10T04:56:24.027Z,37.89
2023-05-10T04:57:24.043Z,37.85
2023-05-10T04:58:24.075Z,37.88
2023-05-10T04:59:24.091Z,37.90
2023-05-10T05:00:24.122Z,37.85
2023-05-10T05:01:24.200Z,37.85
2023-05-10T05:02:24.197Z,37.89
2023-05-10T05:03:24.355Z,37.86
2023-05-10T05:04:24.161Z,37.89
2023-05-10T05:05:24.291Z,37.87
2023-05-10T05:06:24.164Z,37.84
2023-05-10T05:07:24.175Z,37.86
2023-05-10T05:08:24.154Z,37.87
2023-05-10T05:09:24.162Z,37.84
2023-05-10T05:10:24.161Z,37.86
2023-05-10T05:11:24.184Z,37.82
2023-05-10T05:12:24.171Z,37.82
2023-05-10T05:13:24.240Z,37.84
2023-05-10T05:14:24.170Z,37.82
2023-05-10T05:15:24.166Z,37.79
2023-05-10T05:16:24.203Z,37.85
2023-05-10T05:17:24.179Z,37.85
2023-05-10T05:18:24.180Z,38.01
2023-05-10T05:19:24.203Z,38.25
2023-05-10T05:20:24.189Z,38.42
2023-05-10T05:21:24.260Z,38.44
2023-05-10T05:22:24.182Z,38.44
2023-05-10T05:23:24.216Z,38.23
2023-05-10T05:24:24.167Z,38.37
2023-05-10T05:25:24.201Z,38.33
2023-05-10T05:26:24.205Z,38.40
2023-05-10T05:27:24.200Z,38.53
2023-05-10T05:28:25.386Z,38.57
2023-05-10T05:29:24.201Z,38.52
2023-05-10T05:30:25.021Z,38.62
2023-05-10T05:31:24.054Z,39.10
2023-05-10T05:32:24.153Z,39.78
2023-05-10T05:33:23.929Z,40.03
2023-05-10T05:34:23.877Z,40.38
2023-05-10T05:35:24.621Z,41.06
2023-05-10T05:36:23.769Z,41.22
2023-05-10T05:37:23.910Z,41.35
2023-05-10T05:38:23.674Z,41.41
2023-05-10T05:39:23.683Z,41.47
2023-05-10T05:40:23.866Z,41.62
2023-05-10T05:41:24.378Z,41.70
2023-05-10T05:42:23.597Z,41.67
2023-05-10T05:43:23.633Z,41.89
2023-05-10T05:44:23.550Z,41.98
2023-05-10T05:45:23.551Z,42.03
2023-05-10T05:46:23.579Z,41.90
2023-05-10T05:47:23.663Z,42.03
2023-05-10T05:48:23.458Z,42.10
2023-05-10T05:49:23.581Z,42.14
2023-05-10T05:50:23.404Z,42.03
2023-05-10T05:51:23.425Z,42.01
2023-05-10T05:52:23.366Z,42.15
2023-05-10T05:53:23.464Z,42.08
2023-05-10T05:54:23.272Z,42.09
2023-05-10T05:55:23.414Z,42.10
2023-05-10T05:56:23.246Z,42.18
2023-05-10T05:57:23.233Z,42.21
2023-05-10T05:58:23.188Z,42.32
2023-05-10T05:59:23.205Z,42.35
2023-05-10T06:00:23.107Z,42.35
2023-05-10T06:01:23.110Z,42.35
2023-05-10T06:02:23.119Z,42.51
2023-05-10T06:03:23.140Z,42.51
2023-05-10T06:04:23.164Z,42.77
2023-05-10T06:05:23.081Z,42.70
2023-05-10T06:06:23.040Z,42.83
2023-05-10T06:07:23.019Z,42.95
2023-05-10T06:08:22.884Z,42.95
2023-05-10T06:09:22.841Z,42.98
2023-05-10T06:10:22.799Z,43.15
2023-05-10T06:11:22.802Z,43.06
2023-05-10T06:12:22.703Z,43.08
2023-05-10T06:13:22.751Z,43.05
2023-05-10T06:14:22.646Z,43.11
2023-05-10T06:15:22.624Z,43.22
2023-05-10T06:16:22.595Z,43.26
2023-05-10T06:17:22.541Z,43.28
2023-05-10T06:18:22.477Z,43.24
2023-05-10T06:19:22.451Z,43.40
2023-05-10T06:20:22.619Z,43.47
2023-05-10T06:21:22.365Z,43.55
2023-05-10T06:22:22.303Z,43.38
2023-05-10T06:23:22.270Z,43.16
2023-05-10T06:24:22.221Z,42.29
2023-05-10T06:25:22.217Z,41.77
2023-05-10T06:26:22.171Z,41.32
2023-05-10T06:27:22.259Z,40.37
2023-05-10T06:28:22.132Z,38.64
2023-05-10T06:29:22.171Z,38.15
2023-05-10T06:30:22.113Z,37.74
2023-05-10T06:31:22.190Z,37.46
2023-05-10T06:32:22.305Z,37.84
2023-05-10T06:33:22.167Z,38.13
2023-05-10T06:34:22.148Z,38.18
2023-05-10T06:35:22.163Z,38.30
2023-05-10T06:36:22.156Z,38.44
2023-05-10T06:37:22.250Z,38.71
2023-05-10T06:38:22.304Z,38.97
2023-05-10T06:39:22.192Z,39.12
2023-05-10T06:40:22.324Z,39.16
2023-05-10T06:41:24.555Z,39.46
2023-05-10T06:42:22.216Z,39.67
2023-05-10T06:43:22.104Z,39.74
2023-05-10T06:44:22.076Z,39.62
2023-05-10T06:45:22.362Z,39.74
2023-05-10T06:46:22.030Z,39.79
2023-05-10T06:47:21.948Z,39.76
2023-05-10T06:48:21.931Z,39.90
2023-05-10T06:49:21.854Z,39.87
2023-05-10T06:50:21.920Z,39.90
2023-05-10T06:51:21.773Z,40.00
2023-05-10T06:52:22.403Z,40.02
2023-05-10T06:53:21.675Z,40.07
2023-05-10T06:54:21.618Z,38.82
2023-05-10T06:55:21.674Z,37.78
2023-05-10T06:56:21.536Z,37.71
2023-05-10T06:57:31.107Z,37.68
2023-05-10T06:58:22.490Z,37.52
2023-05-10T06:59:21.544Z,37.04
2023-05-10T07:00:21.689Z,37.44
2023-05-10T07:01:21.459Z,37.78
2023-05-10T07:02:21.449Z,37.95
2023-05-10T07:03:21.385Z,38.10
2023-05-10T07:04:21.406Z,38.19
2023-05-10T07:05:21.512Z,38.25
2023-05-10T07:06:32.204Z,38.19
2023-05-10T07:07:22.211Z,38.05
2023-05-10T07:08:21.164Z,38.09
2023-05-10T07:09:21.178Z,38.15
2023-05-10T07:10:21.164Z,38.19
2023-05-10T07:11:21.076Z,38.05
2023-05-10T07:12:21.210Z,37.98
2023-05-10T07:13:21.099Z,38.02
2023-05-10T07:14:20.960Z,37.89
2023-05-10T07:15:20.932Z,37.80
2023-05-10T07:16:20.988Z,38.19
2023-05-10T07:17:20.983Z,38.51
2023-05-10T07:18:20.858Z,38.18
2023-05-10T07:19:20.806Z,38.99
2023-05-10T07:20:20.752Z,38.18
2023-05-10T07:21:20.752Z,38.10
2023-05-10T07:22:20.683Z,38.00
2023-05-10T07:23:20.720Z,37.95
2023-05-10T07:24:20.706Z,38.22
2023-05-10T07:25:20.717Z,37.95
2023-05-10T07:26:20.712Z,37.81
2023-05-10T07:27:20.723Z,37.70
2023-05-10T07:28:20.719Z,37.76
2023-05-10T07:29:20.724Z,37.87
2023-05-10T07:30:20.789Z,37.96
2023-05-10T07:31:20.735Z,38.02
2023-05-10T07:32:20.771Z,37.91
2023-05-10T07:33:20.803Z,37.87
2023-05-10T07:34:20.789Z,37.86
2023-05-10T07:35:20.761Z,37.73
2023-05-10T07:36:20.841Z,37.54
2023-05-10T07:37:20.839Z,37.54
2023-05-10T07:38:20.814Z,37.74
2023-05-10T07:39:26.629Z,37.68
2023-05-10T07:40:21.763Z,37.68
2023-05-10T07:41:20.695Z,37.86
2023-05-10T07:42:20.677Z,37.99
2023-05-10T07:43:20.604Z,38.24
2023-05-10T07:44:20.576Z,38.24
2023-05-10T07:45:20.510Z,38.30
2023-05-10T07:46:20.565Z,38.31
2023-05-10T07:47:20.438Z,37.94
2023-05-10T07:48:20.403Z,37.71
2023-05-10T07:49:20.328Z,37.57
2023-05-10T07:50:20.341Z,37.60
2023-05-10T07:51:20.312Z,37.64
2023-05-10T07:52:22.444Z,37.60
2023-05-10T07:53:20.310Z,37.57
2023-05-10T07:54:20.326Z,37.67
2023-05-10T07:55:20.315Z,37.64
2023-05-10T07:56:20.318Z,37.60
2023-05-10T07:57:20.320Z,37.37
2023-05-10T07:58:20.306Z,37.15
2023-05-10T07:59:20.299Z,37.18
2023-05-10T08:00:20.315Z,37.37
2023-05-10T08:01:20.310Z,37.39
2023-05-10T08:02:20.335Z,37.39
2023-05-10T08:03:20.505Z,37.10
2023-05-10T08:04:20.357Z,36.55
2023-05-10T08:05:20.328Z,36.23
2023-05-10T08:06:20.304Z,36.24
2023-05-10T08:07:20.322Z,35.87
2023-05-10T08:08:20.316Z,35.78
2023-05-10T08:09:20.336Z,35.96
2023-05-10T08:10:20.340Z,36.29
2023-05-10T08:11:20.312Z,36.26
2023-05-10T08:12:20.285Z,36.11
2023-05-10T08:13:20.285Z,36.26
2023-05-10T08:14:20.302Z,36.31
2023-05-10T08:15:20.302Z,36.44
2023-05-10T08:16:20.327Z,36.44
2023-05-10T08:17:21.215Z,36.21
2023-05-10T08:18:22.047Z,36.09
2023-05-10T08:19:20.213Z,36.35
2023-05-10T08:20:20.237Z,36.71
2023-05-10T08:21:20.236Z,36.58
2023-05-10T08:22:20.336Z,36.83
2023-05-10T08:23:20.251Z,37.10
2023-05-10T08:24:20.255Z,37.07
2023-05-10T08:25:20.260Z,37.19
2023-05-10T08:26:20.220Z,37.02
2023-05-10T08:27:20.257Z,36.65
2023-05-10T08:28:20.963Z,37.19
2023-05-10T08:29:20.207Z,37.06
2023-05-10T08:30:20.202Z,37.22
2023-05-10T08:31:20.303Z,37.01
2023-05-10T08:32:20.214Z,36.89
2023-05-10T08:33:20.233Z,36.98
2023-05-10T08:34:20.215Z,37.16
2023-05-10T08:35:20.244Z,37.16
2023-05-10T08:36:20.201Z,36.99
2023-05-10T08:37:20.209Z,37.01
2023-05-10T08:38:20.204Z,37.10
2023-05-10T08:39:29.717Z,37.07
2023-05-10T08:40:21.146Z,37.17
2023-05-10T08:41:20.092Z,36.71
2023-05-10T08:42:20.020Z,36.83
2023-05-10T08:43:20.954Z,36.73
2023-05-10T08:44:19.910Z,36.87
2023-05-10T08:45:20.001Z,36.70
2023-05-10T08:46:19.911Z,36.91
2023-05-10T08:47:19.863Z,37.15
2023-05-10T08:48:19.701Z,37.28
2023-05-10T08:49:19.656Z,37.17
2023-05-10T08:50:19.663Z,37.33
2023-05-10T08:51:19.558Z,37.21
2023-05-10T08:52:19.503Z,37.12
2023-05-10T08:53:19.442Z,37.34
2023-05-10T08:54:19.381Z,37.35
2023-05-10T08:55:19.417Z,37.23
2023-05-10T08:56:19.308Z,36.98
2023-05-10T08:57:19.294Z,37.29
2023-05-10T08:58:19.248Z,37.52
2023-05-10T08:59:19.237Z,37.55
2023-05-10T09:00:19.219Z,37.50
2023-05-10T09:01:19.259Z,37.13
2023-05-10T09:02:19.161Z,37.35
2023-05-10T09:03:19.174Z,37.08
2023-05-10T09:04:19.211Z,37.48
2023-05-10T09:05:19.676Z,37.56
2023-05-10T09:06:19.081Z,37.57
2023-05-10T09:07:19.030Z,37.63
2023-05-10T09:08:19.013Z,37.67
2023-05-10T09:09:18.991Z,37.68
2023-05-10T09:10:19.019Z,37.76
2023-05-10T09:11:19.459Z,37.68
2023-05-10T09:12:18.872Z,37.70
2023-05-10T09:13:18.833Z,37.67
2023-05-10T09:14:18.800Z,37.61
2023-05-10T09:15:18.996Z,37.71
2023-05-10T09:16:21.849Z,37.64
2023-05-10T09:17:18.791Z,37.57
2023-05-10T09:18:18.762Z,37.01
2023-05-10T09:19:18.570Z,37.25
2023-05-10T09:20:18.647Z,37.15
2023-05-10T09:21:18.478Z,37.45
2023-05-10T09:22:18.412Z,37.38
2023-05-10T09:23:18.353Z,37.52
2023-05-10T09:24:18.311Z,37.55
2023-05-10T09:25:18.562Z,37.58
2023-05-10T09:26:18.192Z,37.61
2023-05-10T09:27:18.160Z,37.59
2023-05-10T09:28:18.096Z,37.63
2023-05-10T09:29:18.246Z,37.64
2023-05-10T09:30:17.998Z,37.63
2023-05-10T09:31:17.981Z,37.64
2023-05-10T09:32:17.891Z,37.67
2023-05-10T09:33:17.824Z,37.71
2023-05-10T09:34:17.813Z,37.68
2023-05-10T09:35:18.011Z,37.72
2023-05-10T09:36:17.700Z,37.72
2023-05-10T09:37:17.629Z,37.73
2023-05-10T09:38:17.583Z,37.75
2023-05-10T09:39:17.521Z,37.77
2023-05-10T09:40:17.572Z,37.80
2023-05-10T09:41:17.397Z,37.82
2023-05-10T09:42:17.360Z,37.82
2023-05-10T09:43:17.298Z,37.84
2023-05-10T09:44:17.266Z,37.87
2023-05-10T09:45:17.394Z,37.84
2023-05-10T09:46:17.237Z,37.88
2023-05-10T09:47:17.096Z,37.87
2023-05-10T09:48:17.048Z,37.92
2023-05-10T09:49:17.001Z,37.94
2023-05-10T09:50:16.958Z,37.94
2023-05-10T09:51:16.900Z,37.94
2023-05-10T09:52:16.860Z,37.93
2023-05-10T09:53:16.849Z,37.95
2023-05-10T09:54:16.767Z,37.90
2023-05-10T09:55:16.919Z,37.94
2023-05-10T09:56:16.643Z,38.00
2023-05-10T09:57:16.593Z,37.95
2023-05-10T09:58:16.555Z,37.97
2023-05-10T09:59:16.484Z,37.94
2023-05-10T10:00:16.480Z,37.94
2023-05-10T10:01:16.422Z,38.00
2023-05-10T10:02:16.332Z,37.98
2023-05-10T10:03:16.328Z,37.99
2023-05-10T10:04:16.253Z,37.97
2023-05-10T10:05:16.382Z,37.97
2023-05-10T10:06:26.785Z,37.98
2023-05-10T10:07:17.084Z,37.99
2023-05-10T10:08:16.011Z,37.97
2023-05-10T10:09:15.968Z,37.98
2023-05-10T10:10:15.909Z,38.00
2023-05-10T10:11:15.891Z,37.96
2023-05-10T10:12:15.791Z,37.91
2023-05-10T10:13:15.774Z,37.96
2023-05-10T10:14:15.718Z,37.96
2023-05-10T10:15:16.907Z,37.93
2023-05-10T10:16:16.527Z,37.94
2023-05-10T10:17:15.631Z,37.97
2023-05-10T10:18:15.664Z,37.96
2023-05-10T10:19:15.538Z,37.96
2023-05-10T10:20:15.643Z,38.02
2023-05-10T10:21:15.467Z,37.97
2023-05-10T10:22:15.453Z,37.97
2023-05-10T10:23:17.383Z,37.93
2023-05-10T10:24:15.445Z,37.97
2023-05-10T10:25:15.561Z,37.99
2023-05-10T10:26:15.442Z,37.99
2023-05-10T10:27:15.423Z,37.96
2023-05-10T10:28:15.429Z,38.00
2023-05-10T10:29:15.444Z,37.96
2023-05-10T10:30:15.478Z,37.99
2023-05-10T10:31:15.466Z,37.97
2023-05-10T10:32:15.447Z,37.99
2023-05-10T10:33:27.278Z,38.00
2023-05-10T10:34:16.423Z,37.96
2023-05-10T10:35:15.501Z,37.96
2023-05-10T10:36:15.370Z,37.94
2023-05-10T10:37:15.307Z,37.97
2023-05-10T10:38:15.281Z,37.94
2023-05-10T10:39:15.234Z,37.93
2023-05-10T10:40:15.231Z,37.97
2023-05-10T10:41:15.168Z,37.94
2023-05-10T10:42:15.917Z,37.94
2023-05-10T10:43:15.098Z,37.95
2023-05-10T10:44:15.071Z,37.92
2023-05-10T10:45:15.215Z,37.94
2023-05-10T10:46:15.086Z,37.94
2023-05-10T10:47:14.957Z,37.94
2023-05-10T10:48:14.911Z,37.94
2023-05-10T10:49:14.862Z,37.91
2023-05-10T10:50:14.866Z,37.92
2023-05-10T10:51:14.908Z,37.91
2023-05-10T10:52:14.840Z,37.91
2023-05-10T10:53:14.910Z,37.91
2023-05-10T10:54:14.838Z,37.88
2023-05-10T10:55:14.968Z,37.91
2023-05-10T10:56:14.822Z,37.86
2023-05-10T10:57:15.816Z,37.98
2023-05-10T10:58:14.724Z,37.92
2023-05-10T10:59:14.686Z,37.91
2023-05-10T11:00:14.653Z,37.88
2023-05-10T11:01:14.648Z,37.92
2023-05-10T11:02:14.535Z,37.86
2023-05-10T11:03:14.607Z,37.88
2023-05-10T11:04:14.471Z,37.90
2023-05-10T11:05:14.544Z,37.91
2023-05-10T11:06:14.360Z,37.88
2023-05-10T11:07:14.365Z,37.87
2023-05-10T11:08:14.250Z,37.87
2023-05-10T11:09:14.199Z,37.90
2023-05-10T11:10:14.242Z,37.85
2023-05-10T11:11:14.162Z,37.85
2023-05-10T11:12:14.132Z,37.86
2023-05-10T11:13:14.114Z,37.87
2023-05-10T11:14:14.104Z,37.85
2023-05-10T11:15:14.183Z,37.91
2023-05-10T11:16:14.112Z,37.90
2023-05-10T11:17:14.088Z,37.84
2023-05-10T11:18:14.029Z,37.84
2023-05-10T11:19:14.189Z,37.86
2023-05-10T11:20:14.089Z,37.88
2023-05-10T11:21:14.027Z,37.84
2023-05-10T11:22:13.995Z,37.83
2023-05-10T11:23:14.026Z,37.83
2023-05-10T11:24:13.987Z,37.85
2023-05-10T11:25:14.041Z,37.84
2023-05-10T11:26:14.005Z,37.85
2023-05-10T11:27:13.999Z,37.81
2023-05-10T11:28:14.001Z,37.84
2023-05-10T11:29:14.016Z,37.82
2023-05-10T11:30:14.225Z,37.87
2023-05-10T11:31:14.074Z,37.82
2023-05-10T11:32:13.991Z,37.78
2023-05-10T11:33:14.006Z,37.81
2023-05-10T11:34:13.986Z,37.85
2023-05-10T11:35:13.988Z,37.82
2023-05-10T11:36:13.999Z,37.83
2023-05-10T11:37:13.968Z,37.77
2023-05-10T11:38:13.967Z,37.79
2023-05-10T11:39:13.943Z,37.82
2023-05-10T11:40:13.985Z,37.79
2023-05-10T11:41:13.939Z,37.81
2023-05-10T11:42:13.942Z,37.81
2023-05-10T11:43:13.909Z,37.77
2023-05-10T11:44:13.916Z,37.79
2023-05-10T11:45:13.886Z,37.78
2023-05-10T11:46:13.927Z,37.79
2023-05-10T11:47:13.897Z,37.74
2023-05-10T11:48:13.907Z,37.77
2023-05-10T11:49:13.844Z,37.73
2023-05-10T11:50:13.942Z,37.79
2023-05-10T11:51:13.815Z,37.77
2023-05-10T11:52:13.822Z,37.79
2023-05-10T11:53:13.798Z,37.69
2023-05-10T11:54:13.814Z,37.71
2023-05-10T11:55:13.788Z,37.75
2023-05-10T11:56:13.798Z,37.72
2023-05-10T11:57:13.772Z,37.74
2023-05-10T11:58:13.773Z,37.75
2023-05-10T11:59:13.745Z,37.71
2023-05-10T12:00:13.870Z,37.69
2023-05-10T12:01:13.748Z,37.75
2023-05-10T12:02:14.053Z,37.70
2023-05-10T12:03:13.822Z,37.69
2023-05-10T12:04:13.947Z,37.69
2023-05-10T12:05:13.749Z,37.68
2023-05-10T12:06:13.769Z,37.69
2023-05-10T12:07:13.759Z,37.69
2023-05-10T12:08:13.763Z,37.70
2023-05-10T12:09:13.749Z,37.69
2023-05-10T12:10:13.795Z,37.62
2023-05-10T12:11:13.743Z,37.68
2023-05-10T12:12:13.754Z,37.66
2023-05-10T12:13:13.740Z,37.66
2023-05-10T12:14:13.743Z,37.68
2023-05-10T12:15:13.732Z,37.72
2023-05-10T12:16:13.775Z,37.64
2023-05-10T12:17:13.718Z,37.66
2023-05-10T12:18:13.804Z,37.66
2023-05-10T12:19:13.787Z,37.62
2023-05-10T12:20:13.772Z,37.69
2023-05-10T12:21:13.729Z,37.69
2023-05-10T12:22:13.740Z,37.58
2023-05-10T12:23:13.702Z,37.66
2023-05-10T12:24:13.738Z,37.61
2023-05-10T12:25:13.696Z,37.62
2023-05-10T12:26:13.714Z,37.58
2023-05-10T12:27:13.672Z,37.76
2023-05-10T12:28:13.691Z,38.02
2023-05-10T12:29:13.661Z,38.56
2023-05-10T12:30:13.688Z,38.61
2023-05-10T12:31:13.673Z,38.73
2023-05-10T12:32:13.766Z,38.75
2023-05-10T12:33:13.695Z,38.89
2023-05-10T12:34:13.676Z,39.00
2023-05-10T12:35:13.658Z,39.63
2023-05-10T12:36:13.677Z,39.46
2023-05-10T12:37:13.646Z,39.38
2023-05-10T12:38:13.663Z,39.25
2023-05-10T12:39:13.642Z,39.15
2023-05-10T12:40:13.655Z,39.10
2023-05-10T12:41:13.682Z,39.32
2023-05-10T12:42:13.661Z,39.05
2023-05-10T12:43:13.627Z,38.95
2023-05-10T12:44:13.642Z,38.86
2023-05-10T12:45:13.610Z,38.82
2023-05-10T12:46:13.671Z,38.79
2023-05-10T12:47:13.603Z,38.82
2023-05-10T12:48:13.687Z,38.82
2023-05-10T12:49:13.628Z,38.80
2023-05-10T12:50:13.630Z,38.79
2023-05-10T12:51:13.619Z,38.78
2023-05-10T12:52:13.636Z,38.83